METAR Data
IDs: Format: Raw Decoded Include TAF

Data at: 1730 UTC 03 Jun 2020

KCAV 031715Z AUTO 02009G15KT 10SM CLR 30/10 A2987 RMK A01
KCAV 031655Z AUTO 02010KT 10SM CLR 30/11 A2987 RMK A01
KCAV 031635Z AUTO 01013KT 10SM CLR 29/11 A2987 RMK A01
KCAV 031615Z AUTO 03012G19KT 10SM CLR 29/12 A2987 RMK A01
KCAV 031555Z AUTO 36013G19KT 10SM CLR 28/15 A2988 RMK A01
KCAV 031535Z AUTO 01014KT 10SM CLR 27/15 A2988 RMK A01
KCAV 031515Z AUTO 36013KT 10SM CLR 26/17 A2989 RMK A01
KCAV 031455Z AUTO 36014G19KT 10SM CLR 26/18 A2989 RMK A01
KCAV 031435Z AUTO 36014G19KT 10SM CLR 25/19 A2990 RMK A01
KCAV 031415Z AUTO 36013KT 10SM CLR 24/20 A2990 RMK A01
KCAV 031355Z AUTO 01012KT 10SM CLR 24/20 A2990 RMK A01
KCAV 031335Z AUTO 02011KT 10SM CLR 23/20 A2990 RMK A01
KCAV 031315Z AUTO 03010KT 10SM CLR 22/20 A2990 RMK A01
KCAV 031255Z AUTO 04009KT 10SM CLR 21/20 A2991 RMK A01
KCAV 031235Z AUTO 04009KT 10SM CLR 21/20 A2990 RMK A01
KCAV 031215Z AUTO 04008KT 10SM CLR 20/20 A2990 RMK A01
KCAV 031155Z AUTO 04009KT 10SM CLR 19/19 A2990 RMK A01
KCAV 031135Z AUTO 07007KT 10SM CLR 19/18 A2988 RMK A01
KCAV 031115Z AUTO 04008KT 10SM CLR 19/18 A2988 RMK A01
KCAV 031055Z AUTO 03008KT 10SM CLR 20/18 A2987 RMK A01
KCAV 031035Z AUTO 05008KT 10SM CLR 20/18 A2985 RMK A01
KCAV 031015Z AUTO 04008KT 10SM FEW031 FEW050 20/18 A2984 RMK A01
KCAV 030955Z AUTO 05011KT 10SM 20/19 A2984 RMK A01
KCAV 030935Z AUTO 06010KT 10SM BKN055 20/19 A2984 RMK A01
KCAV 030915Z AUTO 06011KT 10SM OVC055 20/19 A2985 RMK A01
KCAV 030855Z AUTO 05010KT 10SM BKN055 BKN065 20/19 A2985 RMK A01
KCAV 030835Z AUTO 04010KT 10SM FEW044 SCT055 20/19 A2986 RMK A01
KCAV 030815Z AUTO 04011KT 10SM FEW045 SCT055 SCT065 20/19 A2986 RMK A01
KCAV 030755Z AUTO 07012KT 10SM FEW042 BKN050 21/19 A2985 RMK A01
KCAV 030735Z AUTO 07011G17KT 10SM FEW044 BKN055 20/19 A2986 RMK A01
KCAV 030715Z AUTO 07014G19KT 10SM FEW043 SCT049 BKN060 20/19 A2985 RMK A01
KCAV 030655Z AUTO 06016KT 10SM SCT049 SCT060 BKN110 21/19 A2987 RMK A01
KCAV 030635Z AUTO 07014G20KT 10SM FEW040 FEW050 SCT075 21/18 A2987 RMK A01
KCAV 030615Z AUTO 07019KT 10SM FEW037 SCT044 SCT085 21/18 A2986 RMK A01
KCAV 030555Z AUTO 07017G23KT 10SM FEW037 SCT045 SCT085 21/17 A2987 RMK A01
KCAV 030535Z AUTO 07015G24KT 10SM SCT045 BKN085 21/17 A2988 RMK A01
KCAV 030515Z AUTO 06017KT 10SM SCT045 BKN090 21/17 A2988 RMK A01
KCAV 030455Z AUTO 04016KT 10SM FEW039 FEW048 SCT095 22/17 A2989 RMK A01
KCAV 030435Z AUTO 02016KT 10SM FEW037 FEW050 BKN070 22/17 A2989 RMK A01
KCAV 030415Z AUTO 10020KT 10SM FEW035 SCT049 BKN075 23/16 A2984 RMK A01
KCAV 030355Z AUTO 08018G25KT 10SM FEW034 SCT041 SCT048 23/16 A2986 RMK A01
KCAV 030335Z AUTO 08019G28KT 10SM FEW041 23/16 A2986 RMK A01
KCAV 030315Z AUTO 08019G24KT 10SM FEW120 24/15 A2984 RMK A01
KCAV 030255Z AUTO 08015G21KT 10SM FEW120 25/16 A2984 RMK A01
KCAV 030235Z AUTO 09015G20KT 10SM FEW060 FEW070 25/19 A2983 RMK A01
KCAV 030215Z AUTO 09015KT 10SM CLR 25/20 A2983 RMK A01
KCAV 030155Z AUTO 07012KT 10SM FEW095 SCT120 25/20 A2982 RMK A01
KCAV 030135Z AUTO 36008G21KT 320V050 9SM FEW060 SCT095 SCT120 29/18 A2982 RMK A01
KCAV 030115Z AUTO 23009KT 10SM CLR 33/16 A2979 RMK A01
KCAV 030055Z AUTO 23013KT 10SM CLR 33/16 A2978 RMK A01
KCAV 030035Z AUTO 23013G20KT 10SM CLR 34/16 A2978 RMK A01
KCAV 030015Z AUTO 23015G22KT 10SM CLR 34/16 A2977 RMK A01
KCAV 022355Z AUTO 23021G27KT 10SM CLR 35/15 A2976 RMK A01
KCAV 022335Z AUTO 22021G30KT 10SM CLR 35/15 A2975 RMK A01
KCAV 022315Z AUTO 22019G28KT 10SM CLR 36/15 A2975 RMK A01
KCAV 022255Z AUTO 22022G29KT 10SM CLR 36/15 A2976 RMK A01
KCAV 022235Z AUTO 23023G29KT 10SM CLR 37/15 A2976 RMK A01
KCAV 022215Z AUTO 23017G28KT 10SM CLR 36/15 A2977 RMK A01
KCAV 022155Z AUTO 23021G28KT 10SM CLR 36/15 A2978 RMK A01
KCAV 022135Z AUTO 22021G31KT 10SM CLR 37/15 A2977 RMK A01
KCAV 022115Z AUTO 23025KT 10SM CLR 37/14 A2977 RMK A01
KCAV 022055Z AUTO 22021G32KT 10SM CLR 37/15 A2977 RMK A01
KCAV 022035Z AUTO 21023G32KT 10SM CLR 37/15 A2978 RMK A01
KCAV 022015Z AUTO 21022G31KT 10SM CLR 37/15 A2978 RMK A01
KCAV 021955Z AUTO 22017G27KT 10SM CLR 37/16 A2979 RMK A01
KCAV 021935Z AUTO 22018G25KT 10SM CLR 36/16 A2979 RMK A01
KCAV 021915Z AUTO 21016G26KT 10SM CLR 35/17 A2981 RMK A01
KCAV 021855Z AUTO 20019G24KT 10SM CLR 35/17 A2981 RMK A01
KCAV 021835Z AUTO 22016G24KT 10SM CLR 34/17 A2982 RMK A01
KCAV 021815Z AUTO 21015KT 10SM CLR 33/17 A2983 RMK A01
KCAV 021755Z AUTO 21016G22KT 10SM CLR 33/18 A2983 RMK A01
KCAV 021735Z AUTO 23012G18KT 10SM CLR 32/18 A2984 RMK A01
KCAV 021715Z AUTO 22015G20KT 10SM CLR 32/18 A2984 RMK A01
KCAV 021655Z AUTO 23011G19KT 10SM CLR 31/18 A2985 RMK A01
KCAV 021635Z AUTO 23012KT 10SM CLR 31/18 A2985 RMK A01
KCAV 021615Z AUTO 22012G17KT 10SM CLR 30/18 A2986 RMK A01
KCAV 021555Z AUTO 21014KT 10SM CLR 29/18 A2985 RMK A01
KCAV 021535Z AUTO 23012G17KT 10SM CLR 29/18 A2986 RMK A01
KCAV 021515Z AUTO 25012G18KT 10SM CLR 28/19 A2986 RMK A01
KCAV 021455Z AUTO 24015G21KT 10SM CLR 27/19 A2987 RMK A01
KCAV 021435Z AUTO 24014G20KT 10SM CLR 27/19 A2987 RMK A01
KCAV 021415Z AUTO 24014G20KT 10SM CLR 26/19 A2988 RMK A01
KCAV 021355Z AUTO 24015KT 10SM CLR 25/19 A2988 RMK A01
KCAV 021335Z AUTO 23015G20KT 10SM CLR 25/19 A2988 RMK A01
KCAV 021315Z AUTO 23014G20KT 10SM CLR 24/19 A2988 RMK A01
KCAV 021255Z AUTO 22015KT 10SM CLR 24/19 A2988 RMK A01
KCAV 021235Z AUTO 22014G19KT 10SM CLR 23/20 A2988 RMK A01
KCAV 021215Z AUTO 22012KT 10SM CLR 22/20 A2988 RMK A01
KCAV 021155Z AUTO 21011KT 10SM CLR 21/20 A2988 RMK A01
KCAV 021135Z AUTO 21011KT 10SM CLR 21/20 A2987 RMK A01
KCAV 021115Z AUTO 21011KT 10SM CLR 21/20 A2988 RMK A01
KCAV 021055Z AUTO 21010KT 10SM CLR 21/19 A2987 RMK A01
KCAV 021035Z AUTO 21009KT 10SM CLR 21/19 A2987 RMK A01
KCAV 021015Z AUTO 21008KT 10SM CLR 21/19 A2987 RMK A01
KCAV 020955Z AUTO 21008KT 10SM CLR 21/19 A2987 RMK A01
KCAV 020935Z AUTO 21009KT 10SM CLR 22/18 A2987 RMK A01
KCAV 020915Z AUTO 21010KT 10SM CLR 22/18 A2987 RMK A01
KCAV 020855Z AUTO 21010KT 10SM CLR 22/18 A2987 RMK A01
KCAV 020835Z AUTO 22011KT 10SM 23/18 A2988 RMK A01
KCAV 020815Z AUTO 22011KT 10SM CLR 23/18 A2987 RMK A01
KCAV 020755Z AUTO 22012KT 10SM CLR 23/18 A2987 RMK A01
KCAV 020735Z AUTO 22013KT 10SM CLR 23/17 A2987 RMK A01
KCAV 020715Z AUTO 22013KT 10SM CLR 24/17 A2987 RMK A01
KCAV 020655Z AUTO 22015KT 10SM CLR 24/17 A2987 RMK A01
KCAV 020635Z AUTO 22015KT 10SM CLR 24/17 A2987 RMK A01
KCAV 020615Z AUTO 21014KT 10SM CLR 24/17 A2987 RMK A01
KCAV 020555Z AUTO 21014G20KT 10SM CLR 24/17 A2987 RMK A01
KCAV 020535Z AUTO 21014KT 10SM CLR 25/17 A2987 RMK A01